createdAt,value
2018-02-21T00:03:00.859Z,50.60
2018-02-21T00:13:03.594Z,50.40
2018-02-21T00:23:06.341Z,50.70
2018-02-21T00:33:09.839Z,51.40
2018-02-21T00:43:13.335Z,51.50
2018-02-21T00:53:16.067Z,51.50
2018-02-21T01:03:18.802Z,51.70
2018-02-21T01:13:21.540Z,52.00
2018-02-21T01:23:24.271Z,52.00
2018-02-21T01:33:27.008Z,52.20
2018-02-21T01:43:30.507Z,52.10
2018-02-21T01:53:33.469Z,52.10
2018-02-21T02:03:36.958Z,52.60
2018-02-21T02:13:39.686Z,52.30
2018-02-21T02:23:42.413Z,53.10
2018-02-21T02:44:11.818Z,52.50
2018-02-21T02:54:15.392Z,52.50
2018-02-21T03:04:18.250Z,52.50
2018-02-21T03:24:48.516Z,52.50
2018-02-21T03:34:51.369Z,52.60
2018-02-21T03:44:54.173Z,52.60
2018-02-21T03:54:57.033Z,52.70
2018-02-21T04:04:59.828Z,52.50
2018-02-21T04:15:02.628Z,52.60
2018-02-21T04:25:05.489Z,52.70
2018-02-21T04:35:08.365Z,52.70
2018-02-21T04:45:11.174Z,53.10
2018-02-21T04:55:30.476Z,52.70
2018-02-21T05:05:33.262Z,52.70
2018-02-21T05:15:36.067Z,52.60
2018-02-21T05:25:39.709Z,52.50
2018-02-21T05:35:42.510Z,52.50
2018-02-21T05:45:45.373Z,52.50
2018-02-21T05:55:48.187Z,52.50
2018-02-21T06:05:50.982Z,52.50
2018-02-21T06:15:53.864Z,52.30
2018-02-21T06:25:57.428Z,52.50
2018-02-21T06:36:00.292Z,52.50
2018-02-21T06:46:03.089Z,52.50
2018-02-21T06:56:05.877Z,52.50
2018-02-21T07:06:08.687Z,52.30
2018-02-21T22:27:27.812Z,45.50
2018-02-21T22:37:31.229Z,47.60
2018-02-21T22:47:34.711Z,49.30
2018-02-21T22:57:38.359Z,50.00
2018-02-21T23:07:41.848Z,50.10
2018-02-21T23:17:45.191Z,50.20
2018-02-21T23:27:48.549Z,50.30
2018-02-21T23:37:51.966Z,50.30
2018-02-21T23:47:55.318Z,50.40
2018-02-21T23:57:58.729Z,50.40
